Time;durP1;ratioP1;P1;durP2;ratioP2;P2;SDS_P1;SDS_P2;PMS_P1;PMS_P2;Temp;Humidity;BMP_temperature;BMP_pressure;BME280_temperature;BME280_humidity;BME280_pressure;Samples;Min_cycle;Max_cycle;Signal;HPM_P1;HPM_P2
2023/03/04 00:00:24;;;;;;;44.63;21.38;;;2.10;99.90;;;;;;5013843;28;20479;-76
2023/03/04 00:02:50;;;;;;;42.92;20.05;;;2.10;99.90;;;;;;5013964;28;20045;-76
2023/03/04 00:05:15;;;;;;;41.63;17.70;;;2.10;99.90;;;;;;5013520;28;20090;-77
2023/03/04 00:07:41;;;;;;;43.22;18.25;;;2.00;99.90;;;;;;5014409;28;20033;-76
2023/03/04 00:10:07;;;;;;;37.25;17.48;;;2.00;99.90;;;;;;5017447;28;20399;-78
2023/03/04 00:12:33;;;;;;;38.13;18.65;;;2.00;99.90;;;;;;4992927;28;20045;-77
2023/03/04 00:14:58;;;;;;;41.05;19.73;;;2.00;99.90;;;;;;4993696;28;20031;-76
2023/03/04 00:17:24;;;;;;;37.63;17.25;;;2.00;99.90;;;;;;4994934;28;20108;-76
2023/03/04 00:19:50;;;;;;;36.25;16.92;;;1.90;99.90;;;;;;5002125;28;20053;-77
2023/03/04 00:22:15;;;;;;;37.78;16.25;;;1.90;99.90;;;;;;5005589;28;20058;-76
2023/03/04 00:24:41;;;;;;;32.20;16.08;;;1.90;99.90;;;;;;5025664;28;20092;-76
2023/03/04 00:27:07;;;;;;;31.98;16.17;;;1.90;99.90;;;;;;5024851;28;20117;-75
2023/03/04 00:29:32;;;;;;;34.65;17.70;;;1.80;99.90;;;;;;5028528;28;20030;-76
2023/03/04 00:31:58;;;;;;;42.47;19.65;;;1.80;99.90;;;;;;5026168;28;20082;-76
2023/03/04 00:34:24;;;;;;;40.53;18.73;;;1.80;99.90;;;;;;5019436;28;20022;-77
2023/03/04 00:36:49;;;;;;;40.00;18.05;;;1.80;99.90;;;;;;5028420;28;20021;-76
2023/03/04 00:39:15;;;;;;;41.25;18.98;;;1.70;99.90;;;;;;5032513;28;20086;-76
2023/03/04 00:41:41;;;;;;;42.35;20.02;;;1.70;99.90;;;;;;5008477;28;20035;-76
2023/03/04 00:44:06;;;;;;;34.60;16.85;;;1.70;99.90;;;;;;4993769;28;20534;-76
2023/03/04 00:46:32;;;;;;;35.20;16.35;;;1.70;99.90;;;;;;5008837;28;20041;-78
2023/03/04 00:48:58;;;;;;;30.85;16.25;;;1.70;99.90;;;;;;4995975;28;20037;-77
2023/03/04 00:51:23;;;;;;;29.80;14.60;;;1.70;99.90;;;;;;5002321;28;20094;-78
2023/03/04 00:53:51;;;;;;;26.73;12.85;;;1.70;99.90;;;;;;5008328;28;20349;-78
2023/03/04 00:56:17;;;;;;;25.45;11.88;;;1.70;99.90;;;;;;4996017;28;20411;-75
2023/03/04 00:58:42;;;;;;;23.83;11.00;;;1.70;99.90;;;;;;5000512;28;20028;-77
2023/03/04 01:01:08;;;;;;;24.20;11.80;;;1.70;99.90;;;;;;5008914;28;20027;-77
2023/03/04 01:03:34;;;;;;;21.52;11.27;;;1.70;99.90;;;;;;5004828;28;20030;-76
2023/03/04 01:06:00;;;;;;;24.02;11.70;;;1.70;99.90;;;;;;5010705;28;20083;-77
2023/03/04 01:08:26;;;;;;;24.30;10.93;;;1.70;99.90;;;;;;5010543;28;20099;-76
2023/03/04 01:10:51;;;;;;;22.30;11.60;;;1.70;99.90;;;;;;5012006;28;20026;-75
2023/03/04 01:13:17;;;;;;;35.47;15.98;;;1.70;99.90;;;;;;5012154;28;20034;-75
2023/03/04 01:15:43;;;;;;;39.00;17.90;;;1.70;99.90;;;;;;5008426;28;20041;-76
2023/03/04 01:18:09;;;;;;;39.80;18.00;;;1.70;99.90;;;;;;5004080;28;20057;-76
2023/03/04 01:20:34;;;;;;;38.65;19.58;;;1.80;99.90;;;;;;5002744;28;20053;-77
2023/03/04 01:23:00;;;;;;;38.70;18.10;;;1.70;99.90;;;;;;5012742;28;20026;-76
2023/03/04 01:25:25;;;;;;;32.45;15.90;;;1.70;99.90;;;;;;4997536;28;20030;-77
2023/03/04 01:27:51;;;;;;;31.73;15.85;;;1.70;99.90;;;;;;4998388;28;20026;-76
2023/03/04 01:30:17;;;;;;;34.25;15.52;;;1.70;99.90;;;;;;4998911;28;20201;-75
2023/03/04 01:32:43;;;;;;;31.60;14.77;;;1.60;99.90;;;;;;5013859;28;20030;-76
2023/03/04 01:35:09;;;;;;;32.60;15.52;;;1.60;99.90;;;;;;5022591;28;20033;-75
2023/03/04 01:37:34;;;;;;;33.08;15.95;;;1.60;99.90;;;;;;5021471;28;20030;-76
2023/03/04 01:40:00;;;;;;;31.40;15.63;;;1.60;99.90;;;;;;5038312;28;20387;-77
2023/03/04 01:42:29;;;;;;;37.42;16.42;;;1.60;99.90;;;;;;5019338;28;20424;-76
2023/03/04 01:44:55;;;;;;;32.38;16.23;;;1.50;99.90;;;;;;5017198;28;20040;-77
2023/03/04 01:47:22;;;;;;;42.58;19.40;;;1.50;99.90;;;;;;5024156;28;20022;-77
2023/03/04 01:49:53;;;;;;;38.03;18.50;;;1.50;99.90;;;;;;5021986;28;20029;-76
2023/03/04 01:52:19;;;;;;;34.78;17.15;;;1.40;99.90;;;;;;5008130;28;20018;-76
2023/03/04 01:54:46;;;;;;;32.45;15.13;;;1.40;99.90;;;;;;5015986;28;20025;-77
2023/03/04 01:57:51;;;;;;;35.53;16.58;;;1.40;99.90;;;;;;5026420;28;20022;-76
2023/03/04 02:00:17;;;;;;;32.83;16.17;;;1.40;99.90;;;;;;5021881;28;20045;-77
2023/03/04 02:02:43;;;;;;;30.40;15.25;;;1.40;99.90;;;;;;5025750;28;20038;-77
2023/03/04 02:05:40;;;;;;;;;;;;;;;;;;;;;
2023/03/04 02:08:00;;;;;;;24.27;12.82;;;1.40;99.90;;;;;;5019964;28;20207;-76
2023/03/04 02:10:29;;;;;;;27.55;12.93;;;1.40;99.90;;;;;;5022852;28;20427;-77
2023/03/04 02:12:55;;;;;;;26.05;12.13;;;1.40;99.90;;;;;;5023249;28;20034;-76
2023/03/04 02:15:21;;;;;;;25.15;13.00;;;1.40;99.90;;;;;;5001626;28;20371;-78
2023/03/04 02:17:53;;;;;;;30.75;15.98;;;1.30;99.90;;;;;;5005737;28;20026;-78
2023/03/04 02:20:47;;;;;;;38.50;17.90;;;1.40;99.90;;;;;;5003492;28;20133;-76
2023/03/04 02:23:16;;;;;;;33.75;16.17;;;1.30;99.90;;;;;;4991903;28;20054;-76
2023/03/04 02:26:07;;;;;;;34.45;17.58;;;1.30;99.90;;;;;;5006796;28;20464;-78
2023/03/04 02:28:33;;;;;;;31.65;16.25;;;1.30;99.90;;;;;;5012451;28;20038;-77
2023/03/04 02:30:59;;;;;;;34.65;16.35;;;1.30;99.90;;;;;;5023278;28;20026;-76
2023/03/04 02:33:24;;;;;;;30.70;14.63;;;1.30;99.90;;;;;;5001971;28;20061;-77
2023/03/04 02:35:50;;;;;;;28.05;13.05;;;1.30;99.90;;;;;;5022118;28;20030;-77
2023/03/04 02:38:15;;;;;;;26.15;11.98;;;1.20;99.90;;;;;;5021430;28;20065;-75
2023/03/04 02:40:48;;;;;;;24.23;13.10;;;1.20;99.90;;;;;;5035461;28;20101;-76
2023/03/04 02:43:34;;;;;;;21.63;11.48;;;1.20;99.90;;;;;;5018753;28;20060;-77
2023/03/04 02:46:00;;;;;;;22.25;11.85;;;1.20;99.90;;;;;;5006376;28;20054;-77
2023/03/04 02:48:25;;;;;;;16.92;8.90;;;1.20;99.90;;;;;;5022675;28;20026;-77
2023/03/04 02:50:52;;;;;;;19.08;9.55;;;1.20;99.90;;;;;;5007093;28;20114;-77
2023/03/04 02:53:19;;;;;;;19.63;10.20;;;1.20;99.90;;;;;;5013479;28;20022;-76
2023/03/04 02:55:45;;;;;;;30.63;14.55;;;1.20;99.90;;;;;;5040901;28;20433;-77
2023/03/04 02:58:12;;;;;;;28.30;13.35;;;1.20;99.90;;;;;;5027844;28;20026;-76
2023/03/04 03:00:38;;;;;;;23.83;12.60;;;1.30;99.90;;;;;;5026570;28;20053;-74
2023/03/04 03:03:04;;;;;;;28.23;13.60;;;1.30;99.90;;;;;;5025394;28;20041;-76
2023/03/04 03:05:32;;;;;;;24.58;12.15;;;1.30;99.90;;;;;;5037121;28;20109;-77
2023/03/04 03:07:57;;;;;;;35.42;16.48;;;1.30;99.90;;;;;;5036176;28;20053;-77
2023/03/04 03:10:24;;;;;;;34.33;16.80;;;1.40;99.90;;;;;;5020139;28;20030;-77
2023/03/04 03:12:50;;;;;;;32.15;16.17;;;1.40;99.90;;;;;;5006447;28;20053;-76
2023/03/04 03:15:16;;;;;;;39.45;20.05;;;1.40;99.90;;;;;;5025091;28;20015;-74
2023/03/04 03:17:42;;;;;;;37.50;18.10;;;1.40;99.90;;;;;;5011129;28;20030;-76
2023/03/04 03:20:09;;;;;;;42.15;21.02;;;1.40;99.90;;;;;;4997567;28;20030;-76
2023/03/04 03:22:35;;;;;;;37.00;17.52;;;1.40;99.90;;;;;;5012245;28;20033;-77
2023/03/04 03:25:01;;;;;;;33.08;16.55;;;1.40;99.90;;;;;;5013304;28;20122;-77
2023/03/04 03:27:26;;;;;;;30.20;15.05;;;1.40;99.90;;;;;;4996206;28;20031;-76
2023/03/04 03:29:52;;;;;;;26.45;14.10;;;1.40;99.90;;;;;;4995680;28;20026;-76
2023/03/04 03:32:18;;;;;;;22.40;12.23;;;1.40;99.90;;;;;;4997692;28;20052;-77
2023/03/04 03:34:44;;;;;;;22.60;11.43;;;1.40;99.90;;;;;;5012818;28;20116;-76
2023/03/04 03:37:09;;;;;;;27.05;13.65;;;1.40;99.90;;;;;;5012676;28;20064;-77
2023/03/04 03:39:35;;;;;;;29.00;14.30;;;1.40;99.90;;;;;;5013887;28;20037;-76
2023/03/04 03:42:01;;;;;;;30.50;16.05;;;1.40;99.90;;;;;;5013494;28;20052;-76
2023/03/04 03:44:26;;;;;;;33.55;18.13;;;1.40;99.90;;;;;;4997724;28;20097;-76
2023/03/04 03:46:52;;;;;;;35.92;18.27;;;1.40;99.90;;;;;;4995411;28;20026;-77
2023/03/04 03:49:18;;;;;;;32.95;15.90;;;1.40;99.90;;;;;;4994975;28;20117;-77
2023/03/04 03:51:43;;;;;;;30.52;14.98;;;1.40;99.90;;;;;;5002568;28;20113;-76
2023/03/04 03:54:09;;;;;;;30.70;15.30;;;1.40;99.90;;;;;;5006842;28;20025;-76
2023/03/04 03:56:35;;;;;;;37.10;17.67;;;1.30;99.90;;;;;;5015015;28;20018;-77
2023/03/04 03:59:00;;;;;;;34.70;17.48;;;1.30;99.90;;;;;;5013705;28;20132;-77
2023/03/04 04:01:26;;;;;;;31.02;16.58;;;1.20;99.90;;;;;;5012672;28;20026;-76
2023/03/04 04:03:52;;;;;;;33.65;15.88;;;1.20;99.90;;;;;;5013400;28;20022;-76
2023/03/04 04:06:18;;;;;;;30.77;14.68;;;1.20;99.90;;;;;;5013501;28;20037;-76
2023/03/04 04:08:43;;;;;;;28.27;14.07;;;1.20;99.90;;;;;;5013924;28;20026;-78
2023/03/04 04:11:11;;;;;;;28.77;15.25;;;1.20;99.90;;;;;;5014699;28;20028;-78
2023/03/04 04:13:37;;;;;;;24.42;13.20;;;1.10;99.90;;;;;;5029949;28;20113;-79
2023/03/04 04:16:04;;;;;;;25.40;13.07;;;1.10;99.90;;;;;;5014926;28;20072;-78
2023/03/04 04:18:29;;;;;;;26.90;13.45;;;1.10;99.90;;;;;;5015189;28;20136;-80
2023/03/04 04:20:55;;;;;;;31.60;15.32;;;1.10;99.90;;;;;;5011114;28;20456;-78
2023/03/04 04:23:21;;;;;;;44.83;21.70;;;1.00;99.90;;;;;;5011060;28;20075;-79
2023/03/04 04:25:46;;;;;;;41.45;20.13;;;1.00;99.90;;;;;;4999801;28;20080;-79
2023/03/04 04:28:12;;;;;;;44.60;20.83;;;1.00;99.90;;;;;;4998148;28;20029;-79
2023/03/04 04:30:38;;;;;;;39.30;18.65;;;1.00;99.90;;;;;;5014968;28;20037;-78
2023/03/04 04:33:04;;;;;;;35.58;16.95;;;1.00;99.90;;;;;;4999929;28;20022;-79
2023/03/04 04:35:32;;;;;;;33.55;15.65;;;1.00;99.90;;;;;;5012638;28;20048;-77
2023/03/04 04:37:57;;;;;;;28.02;14.98;;;1.00;99.90;;;;;;5036729;28;20056;-76
2023/03/04 04:40:23;;;;;;;29.27;13.65;;;1.00;99.90;;;;;;5035096;28;20053;-79
2023/03/04 04:42:49;;;;;;;25.95;13.45;;;0.90;99.90;;;;;;5015501;28;20168;-77
2023/03/04 04:45:15;;;;;;;28.40;14.40;;;1.00;99.90;;;;;;5009200;28;20022;-79
2023/03/04 04:47:40;;;;;;;29.83;15.13;;;0.90;99.90;;;;;;4995252;28;20022;-79
2023/03/04 04:50:06;;;;;;;27.67;14.90;;;1.00;99.90;;;;;;4992821;28;20026;-76
2023/03/04 04:52:32;;;;;;;25.08;13.18;;;0.90;99.90;;;;;;5003041;28;20023;-77
2023/03/04 04:54:58;;;;;;;26.50;12.35;;;0.90;99.90;;;;;;5030216;28;20030;-79
2023/03/04 04:57:23;;;;;;;21.63;12.07;;;0.90;99.90;;;;;;5015028;28;20102;-78
2023/03/04 04:59:49;;;;;;;30.35;15.48;;;0.80;99.90;;;;;;5021017;28;20034;-79
2023/03/04 05:02:14;;;;;;;28.35;14.50;;;0.80;99.90;;;;;;5023664;28;20487;-78
2023/03/04 05:04:40;;;;;;;22.27;12.70;;;0.80;99.90;;;;;;5023101;28;20030;-78
2023/03/04 05:07:06;;;;;;;25.98;13.77;;;0.70;99.90;;;;;;5016785;28;20028;-78
2023/03/04 05:09:31;;;;;;;29.33;14.50;;;0.70;99.90;;;;;;5005008;28;20050;-77
2023/03/04 05:11:57;;;;;;;27.95;14.07;;;0.70;99.90;;;;;;5019972;28;20058;-77
2023/03/04 05:14:23;;;;;;;27.50;14.38;;;0.70;99.90;;;;;;5030090;28;20046;-76
2023/03/04 05:16:51;;;;;;;27.08;14.63;;;0.70;99.90;;;;;;5022240;28;20133;-77
2023/03/04 05:19:17;;;;;;;27.63;13.63;;;0.70;99.90;;;;;;5027928;28;20021;-78
2023/03/04 05:21:43;;;;;;;34.50;15.18;;;0.60;99.90;;;;;;5012899;28;20022;-78
2023/03/04 05:24:09;;;;;;;25.05;13.38;;;0.60;99.90;;;;;;5013711;28;20093;-76
2023/03/04 05:26:34;;;;;;;27.83;13.10;;;0.60;99.90;;;;;;5040865;28;20034;-77
2023/03/04 05:29:00;;;;;;;25.42;13.25;;;0.50;99.90;;;;;;5040197;28;20033;-76
2023/03/04 05:31:26;;;;;;;26.55;13.10;;;0.50;99.90;;;;;;5008030;28;20037;-76
2023/03/04 05:33:51;;;;;;;25.88;13.20;;;0.50;99.90;;;;;;5000730;28;20396;-76
2023/03/04 05:36:17;;;;;;;30.23;15.02;;;0.50;99.90;;;;;;5016202;28;20105;-76
2023/03/04 05:38:43;;;;;;;29.98;15.88;;;0.50;99.90;;;;;;5000147;28;20470;-77
2023/03/04 05:41:08;;;;;;;26.50;14.27;;;0.50;99.90;;;;;;5001311;28;20602;-77
2023/03/04 05:43:35;;;;;;;29.63;14.30;;;0.50;99.90;;;;;;5000330;28;20050;-77
2023/03/04 05:46:02;;;;;;;28.55;14.00;;;0.50;99.90;;;;;;5034729;28;20041;-75
2023/03/04 05:48:28;;;;;;;28.23;13.98;;;0.40;99.90;;;;;;5000789;28;20026;-74
2023/03/04 05:50:59;;;;;;;22.05;11.55;;;0.40;99.90;;;;;;5013908;28;20052;-74
2023/03/04 05:53:26;;;;;;;21.63;11.80;;;0.40;99.90;;;;;;5034448;28;20152;-74
2023/03/04 05:55:52;;;;;;;26.50;13.13;;;0.40;99.90;;;;;;5020193;28;20037;-75
2023/03/04 05:58:18;;;;;;;26.10;13.20;;;0.40;99.90;;;;;;5019908;28;20038;-72
2023/03/04 06:00:44;;;;;;;25.20;12.88;;;0.50;99.90;;;;;;5001708;28;20073;-72
2023/03/04 06:03:15;;;;;;;24.70;13.43;;;0.50;99.90;;;;;;5008491;28;20050;-74
2023/03/04 06:05:41;;;;;;;26.20;13.57;;;0.50;99.90;;;;;;5007234;28;20030;-74
2023/03/04 06:08:07;;;;;;;24.10;12.73;;;0.60;99.90;;;;;;4999613;28;20026;-73
2023/03/04 06:10:32;;;;;;;20.98;11.02;;;0.60;99.90;;;;;;5014894;28;20475;-75
2023/03/04 06:12:58;;;;;;;20.77;11.13;;;0.70;99.90;;;;;;4999451;28;20030;-72
2023/03/04 06:15:24;;;;;;;25.70;13.00;;;0.70;99.90;;;;;;5016157;28;20030;-75
2023/03/04 06:17:49;;;;;;;28.60;15.38;;;0.80;99.90;;;;;;4997466;28;20023;-73
2023/03/04 06:20:15;;;;;;;26.13;13.18;;;0.90;99.90;;;;;;4997120;28;20368;-74
2023/03/04 06:22:41;;;;;;;28.75;14.02;;;0.90;99.90;;;;;;5012825;28;20149;-74
2023/03/04 06:25:07;;;;;;;29.27;15.15;;;1.00;99.90;;;;;;4997296;28;20420;-74
2023/03/04 06:27:32;;;;;;;36.53;19.17;;;1.00;99.90;;;;;;4994611;28;20029;-74
2023/03/04 06:29:58;;;;;;;30.83;16.98;;;1.00;99.90;;;;;;5016470;28;20062;-75
2023/03/04 06:32:24;;;;;;;30.77;15.63;;;1.10;99.90;;;;;;4999969;28;20026;-74
2023/03/04 06:34:50;;;;;;;30.05;15.88;;;1.10;99.90;;;;;;4995399;28;20041;-76
2023/03/04 06:37:15;;;;;;;28.33;14.73;;;1.20;99.90;;;;;;4999030;28;20031;-75
2023/03/04 06:39:41;;;;;;;27.50;14.05;;;1.20;99.90;;;;;;4996936;28;20054;-74
2023/03/04 06:42:07;;;;;;;24.65;12.23;;;1.30;99.90;;;;;;4996140;28;20026;-76
2023/03/04 06:44:32;;;;;;;21.10;11.98;;;1.30;99.90;;;;;;5006925;28;20026;-75
2023/03/04 06:46:58;;;;;;;24.67;12.25;;;1.40;99.90;;;;;;4996488;28;20031;-74
2023/03/04 06:49:23;;;;;;;21.58;11.30;;;1.50;99.90;;;;;;4996478;28;20101;-74
2023/03/04 06:51:49;;;;;;;22.77;12.05;;;1.50;99.90;;;;;;5004261;28;20033;-74
2023/03/04 06:54:15;;;;;;;39.88;19.80;;;1.60;99.90;;;;;;5015283;28;20101;-73
2023/03/04 06:56:40;;;;;;;33.10;17.40;;;1.70;99.90;;;;;;5007156;28;20058;-74
2023/03/04 06:59:06;;;;;;;29.60;15.18;;;1.80;99.90;;;;;;5012545;28;20038;-74
2023/03/04 07:01:33;;;;;;;29.45;15.75;;;1.80;99.90;;;;;;5024907;28;20038;-74
2023/03/04 07:03:59;;;;;;;32.65;17.30;;;1.90;99.90;;;;;;4999434;28;20032;-74
2023/03/04 07:06:28;;;;;;;33.60;17.02;;;2.00;99.90;;;;;;5010207;28;20073;-75
2023/03/04 07:08:54;;;;;;;29.08;15.98;;;2.10;99.90;;;;;;5005192;28;20045;-74
2023/03/04 07:11:21;;;;;;;27.30;14.32;;;2.20;99.90;;;;;;5002195;28;20437;-75
2023/03/04 07:13:47;;;;;;;29.63;15.00;;;2.30;99.90;;;;;;5017028;28;20030;-74
2023/03/04 07:16:16;;;;;;;24.00;14.13;;;2.40;99.90;;;;;;5017112;28;20078;-73
2023/03/04 07:18:43;;;;;;;27.77;13.25;;;2.50;99.90;;;;;;4998759;28;20026;-74
2023/03/04 07:21:09;;;;;;;24.58;13.65;;;2.50;99.90;;;;;;5013752;28;20034;-74
2023/03/04 07:23:35;;;;;;;30.27;16.98;;;2.60;99.90;;;;;;5002876;28;20091;-76
2023/03/04 07:26:01;;;;;;;30.95;16.15;;;2.70;99.90;;;;;;5030067;28;20037;-75
2023/03/04 07:28:26;;;;;;;29.17;15.48;;;2.80;99.90;;;;;;4999756;28;20026;-75
2023/03/04 07:30:52;;;;;;;30.63;16.08;;;2.80;99.90;;;;;;5012372;28;20040;-74
2023/03/04 07:33:18;;;;;;;23.58;12.05;;;2.90;99.90;;;;;;5029439;28;20085;-74
2023/03/04 07:35:44;;;;;;;26.63;13.73;;;3.00;99.90;;;;;;4995116;28;20472;-74
2023/03/04 07:38:09;;;;;;;25.30;14.73;;;3.10;99.90;;;;;;4994716;28;20041;-74
2023/03/04 07:40:35;;;;;;;38.25;20.05;;;3.20;99.90;;;;;;5009121;28;20538;-75
2023/03/04 07:43:01;;;;;;;38.95;21.27;;;3.20;99.90;;;;;;4993989;28;20026;-75
2023/03/04 07:45:27;;;;;;;33.35;19.40;;;3.20;99.90;;;;;;5009620;23;20133;-72
2023/03/04 07:47:53;;;;;;;33.42;18.23;;;3.30;99.90;;;;;;5021541;28;20026;-73
2023/03/04 07:50:19;;;;;;;32.83;18.25;;;3.40;99.90;;;;;;5028222;28;20058;-73
2023/03/04 07:52:49;;;;;;;36.45;19.02;;;3.50;99.90;;;;;;5034387;28;20469;-74
2023/03/04 07:55:15;;;;;;;31.42;16.85;;;3.60;99.90;;;;;;5014300;28;20022;-72
2023/03/04 07:57:45;;;;;;;27.77;16.38;;;3.70;99.90;;;;;;4995315;28;20363;-73
2023/03/04 08:00:14;;;;;;;27.27;15.57;;;3.70;99.80;;;;;;4996460;28;20053;-72
2023/03/04 08:02:40;;;;;;;22.17;13.70;;;3.70;99.70;;;;;;4995106;28;20018;-72
2023/03/04 08:05:06;;;;;;;42.00;22.20;;;3.90;99.80;;;;;;5004552;28;20076;-73
2023/03/04 08:07:32;;;;;;;51.67;26.27;;;3.90;99.10;;;;;;5013124;28;20121;-72
2023/03/04 08:09:58;;;;;;;45.22;24.27;;;4.00;98.20;;;;;;5008322;28;20026;-72
2023/03/04 08:12:25;;;;;;;50.88;24.40;;;3.90;97.50;;;;;;4995146;28;20340;-72
2023/03/04 08:14:51;;;;;;;40.22;20.85;;;3.90;97.50;;;;;;4994671;28;20018;-72
2023/03/04 08:17:17;;;;;;;50.90;27.00;;;3.90;97.60;;;;;;4997138;28;20560;-73
2023/03/04 08:19:43;;;;;;;39.83;22.48;;;3.90;97.30;;;;;;4984239;28;20034;-71
2023/03/04 08:22:08;;;;;;;44.65;23.95;;;4.00;97.20;;;;;;4996341;28;20379;-72
2023/03/04 08:24:34;;;;;;;36.20;19.33;;;4.00;96.90;;;;;;4994841;28;20027;-72
2023/03/04 08:27:00;;;;;;;32.60;18.33;;;4.20;97.30;;;;;;4997937;28;20031;-73
2023/03/04 08:29:26;;;;;;;30.55;17.25;;;4.30;96.80;;;;;;4995165;28;20018;-72
2023/03/04 08:31:54;;;;;;;39.22;21.00;;;4.40;96.50;;;;;;4994897;28;20442;-72
2023/03/04 08:34:21;;;;;;;33.35;18.55;;;4.40;96.30;;;;;;4977613;28;20104;-72
2023/03/04 08:36:47;;;;;;;33.35;18.67;;;4.50;96.40;;;;;;4993246;28;20117;-72
2023/03/04 08:39:14;;;;;;;48.17;24.75;;;4.60;95.90;;;;;;4995125;28;20065;-72
2023/03/04 08:41:40;;;;;;;39.83;21.40;;;4.70;95.40;;;;;;5006855;28;20117;-73
2023/03/04 08:44:09;;;;;;;42.47;22.13;;;4.80;95.10;;;;;;5005365;28;20101;-72
2023/03/04 08:46:37;;;;;;;37.95;21.67;;;4.90;94.60;;;;;;4989689;28;20026;-72
2023/03/04 08:49:03;;;;;;;39.58;22.73;;;5.00;94.10;;;;;;4998764;28;20049;-73
2023/03/04 08:51:29;;;;;;;40.28;20.95;;;5.00;94.10;;;;;;4994259;28;20096;-72
2023/03/04 08:53:55;;;;;;;35.28;19.90;;;5.00;93.70;;;;;;4995656;28;20030;-73
2023/03/04 08:56:20;;;;;;;37.88;20.55;;;5.10;93.80;;;;;;4989815;28;20072;-73
2023/03/04 08:58:46;;;;;;;33.72;18.58;;;5.30;93.40;;;;;;5004892;28;20034;-73
2023/03/04 09:01:13;;;;;;;30.00;15.77;;;5.40;93.20;;;;;;5000839;28;20041;-73
2023/03/04 09:03:40;;;;;;;40.47;21.08;;;5.50;93.40;;;;;;4994676;28;20426;-73
2023/03/04 09:06:07;;;;;;;36.25;20.55;;;5.70;92.60;;;;;;4998474;28;20049;-73
2023/03/04 09:08:33;;;;;;;34.10;19.45;;;5.80;92.10;;;;;;4999570;28;20045;-73
2023/03/04 09:10:59;;;;;;;33.58;20.15;;;5.90;91.70;;;;;;4998736;28;20031;-73
2023/03/04 09:13:28;;;;;;;33.25;18.20;;;6.00;91.30;;;;;;5005775;28;20022;-72
2023/03/04 09:15:54;;;;;;;25.90;15.10;;;6.20;91.60;;;;;;5015741;28;20117;-76
2023/03/04 09:18:22;;;;;;;27.23;15.27;;;6.40;91.10;;;;;;5018285;28;20022;-73
2023/03/04 09:20:48;;;;;;;27.70;15.65;;;6.60;90.50;;;;;;5014015;28;20045;-73
2023/03/04 09:23:14;;;;;;;31.17;17.27;;;6.80;89.70;;;;;;4997669;28;20034;-73
2023/03/04 09:25:41;;;;;;;27.52;17.33;;;6.80;88.60;;;;;;4998362;28;20143;-72
2023/03/04 09:28:07;;;;;;;33.60;19.25;;;6.90;87.60;;;;;;4999257;28;20026;-73
2023/03/04 09:30:34;;;;;;;36.30;22.13;;;6.90;85.40;;;;;;4998691;28;20026;-73
2023/03/04 09:32:59;;;;;;;31.85;19.00;;;6.90;83.90;;;;;;4999802;28;20230;-72
2023/03/04 09:35:25;;;;;;;41.35;21.98;;;6.80;84.00;;;;;;4980855;28;20161;-72
2023/03/04 09:37:51;;;;;;;35.50;18.80;;;6.80;82.30;;;;;;5017778;28;20077;-73
2023/03/04 09:40:23;;;;;;;35.22;20.10;;;6.70;83.00;;;;;;5015538;28;20478;-73
2023/03/04 09:42:57;;;;;;;34.78;18.70;;;6.80;81.50;;;;;;5008968;28;20513;-74
2023/03/04 09:45:33;;;;;;;38.28;20.73;;;6.80;81.90;;;;;;5019550;28;20598;-73
2023/03/04 09:47:59;;;;;;;32.72;19.48;;;6.90;82.00;;;;;;5014253;28;20040;-73
2023/03/04 09:50:27;;;;;;;30.77;16.38;;;6.90;81.30;;;;;;4999570;28;20022;-73
2023/03/04 09:53:06;;;;;;;29.42;17.13;;;7.00;81.30;;;;;;4998761;28;20034;-72
2023/03/04 09:55:41;;;;;;;27.65;15.45;;;7.10;81.50;;;;;;5003684;28;20030;-73
2023/03/04 09:58:18;;;;;;;26.05;14.38;;;7.10;81.60;;;;;;5000262;28;20038;-73
2023/03/04 10:00:50;;;;;;;22.40;12.63;;;7.30;81.50;;;;;;4997358;28;20430;-73
2023/03/04 10:03:22;;;;;;;;;;;7.50;81.20;;;;;;5017684;28;20021;-73
2023/03/04 10:06:06;;;;;;;21.08;12.80;;;7.70;80.70;;;;;;5014502;28;19992;-73
2023/03/04 10:08:38;;;;;;;31.70;17.88;;;7.80;79.80;;;;;;5003243;28;20033;-73
2023/03/04 10:11:08;;;;;;;42.17;23.33;;;;;;;;;;5013395;28;20058;-72
2023/03/04 10:13:39;;;;;;;35.08;20.38;;;8.10;77.80;;;;;;4997810;28;20642;-72
2023/03/04 10:16:08;;;;;;;32.93;18.77;;;8.00;77.40;;;;;;4995812;28;20038;-72
2023/03/04 10:18:42;;;;;;;30.15;17.08;;;8.00;78.10;;;;;;4997434;28;20045;-73
2023/03/04 10:21:25;;;;;;;38.08;21.73;;;8.10;78.40;;;;;;4999243;28;20061;-73
2023/03/04 10:23:53;;;;;;;39.28;22.85;;;8.40;76.50;;;;;;4997313;28;20027;-72
2023/03/04 10:26:21;;;;;;;36.47;21.23;;;8.40;75.80;;;;;;5007065;28;20467;-73
2023/03/04 10:28:48;;;;;;;30.52;15.95;;;8.30;75.60;;;;;;5011837;28;20026;-72
2023/03/04 10:31:27;;;;;;;31.05;17.58;;;8.30;76.60;;;;;;5010911;28;20030;-73
2023/03/04 10:33:53;;;;;;;31.55;19.30;;;8.30;75.80;;;;;;4998914;28;20109;-72
2023/03/04 10:36:28;;;;;;;35.85;20.33;;;8.40;75.60;;;;;;4996576;28;20561;-72
2023/03/04 10:39:07;;;;;;;29.52;17.13;;;8.40;74.50;;;;;;4996901;28;20030;-72
2023/03/04 10:41:33;;;;;;;34.72;19.20;;;8.40;74.70;;;;;;4984834;28;20025;-72
2023/03/04 10:44:02;;;;;;;35.25;21.75;;;8.60;74.20;;;;;;5006872;28;20081;-72
2023/03/04 10:46:28;;;;;;;34.13;19.92;;;8.50;73.50;;;;;;4996820;28;20450;-73
2023/03/04 10:48:54;;;;;;;36.08;19.35;;;8.50;73.30;;;;;;4998368;28;20023;-72
2023/03/04 10:51:26;;;;;;;35.45;20.20;;;8.60;73.40;;;;;;4996240;28;20014;-73
2023/03/04 10:54:17;;;;;;;27.33;16.30;;;8.60;71.90;;;;;;4990940;28;20048;-72
2023/03/04 10:57:12;;;;;;;33.88;19.70;;;8.50;72.50;;;;;;4984881;28;20046;-73
2023/03/04 10:59:57;;;;;;;28.83;17.67;;;8.60;71.40;;;;;;5005983;28;20054;-71
2023/03/04 11:02:34;;;;;;;30.55;15.57;;;8.60;70.90;;;;;;5012024;28;20029;-72
2023/03/04 11:05:06;;;;;;;33.67;18.58;;;8.60;72.10;;;;;;5014331;28;20542;-73
2023/03/04 11:07:36;;;;;;;31.90;16.55;;;;;;;;;;5016058;28;20080;-73
2023/03/04 11:10:38;;;;;;;32.30;19.02;;;8.60;69.40;;;;;;4985562;28;20094;-72
2023/03/04 11:13:10;;;;;;;32.55;19.08;;;8.50;70.30;;;;;;5022219;28;20046;-72
2023/03/04 11:15:59;;;;;;;39.75;19.50;;;8.40;71.40;;;;;;4981974;28;20030;-73
2023/03/04 11:18:49;;;;;;;34.00;18.27;;;8.50;70.80;;;;;;4978274;28;20026;-73
2023/03/04 11:21:25;;;;;;;36.80;20.90;;;8.40;70.90;;;;;;4978376;28;20034;-73
2023/03/04 11:24:05;;;;;;;31.02;18.38;;;8.50;71.00;;;;;;4995927;28;20034;-74
2023/03/04 11:26:44;;;;;;;28.08;17.10;;;8.40;71.00;;;;;;4978257;28;20019;-73
2023/03/04 11:29:18;;;;;;;28.98;16.67;;;8.40;72.00;;;;;;4996453;28;20485;-73
2023/03/04 11:32:17;;;;;;;30.15;17.45;;;8.50;71.40;;;;;;4995849;28;20374;-73
2023/03/04 11:34:50;;;;;;;32.30;18.52;;;8.70;71.70;;;;;;4994753;28;20030;-73
2023/03/04 11:37:34;;;;;;;30.05;17.35;;;8.90;70.70;;;;;;4995477;28;20027;-73
2023/03/04 11:40:28;;;;;;;29.33;17.85;;;9.10;71.60;;;;;;4996515;28;20026;-72
2023/03/04 11:43:01;;;;;;;32.53;19.10;;;9.20;69.80;;;;;;4999193;28;20058;-72
2023/03/04 11:45:46;;;;;;;32.25;19.30;;;9.30;69.00;;;;;;4997869;28;20014;-73
2023/03/04 11:48:29;;;;;;;32.03;18.05;;;9.20;68.90;;;;;;5013863;28;20026;-73
2023/03/04 11:51:11;;;;;;;32.28;19.42;;;9.20;70.10;;;;;;5013491;28;20022;-73
2023/03/04 11:54:05;;;;;;;27.50;16.98;;;9.30;68.90;;;;;;5014369;28;20024;-74
2023/03/04 11:56:42;;;;;;;33.38;19.20;;;9.30;69.90;;;;;;5006668;28;20072;-73
2023/03/04 11:59:16;;;;;;;33.25;19.40;;;9.40;68.80;;;;;;4994999;28;20499;-73
2023/03/04 12:01:45;;;;;;;37.92;20.90;;;9.40;68.70;;;;;;4994513;28;20475;-72
2023/03/04 12:04:40;;;;;;;36.05;20.55;;;9.40;68.40;;;;;;4995724;28;20109;-73
2023/03/04 12:07:36;;;;;;;35.33;20.45;;;9.30;68.20;;;;;;4999139;28;20033;-73
2023/03/04 12:10:25;;;;;;;35.33;20.38;;;9.30;69.10;;;;;;4987165;28;20110;-73
2023/03/04 12:12:51;;;;;;;33.05;18.60;;;9.40;67.90;;;;;;4996853;28;20121;-73
2023/03/04 12:15:20;;;;;;;40.70;21.98;;;9.30;68.50;;;;;;4994821;28;20458;-72
2023/03/04 12:18:24;;;;;;;34.25;19.88;;;9.40;69.10;;;;;;4998152;28;20029;-72
2023/03/04 12:21:15;;;;;;;32.72;19.58;;;9.50;68.40;;;;;;4994672;28;20038;-73
2023/03/04 12:23:58;;;;;;;37.00;20.73;;;9.60;67.80;;;;;;4993846;28;20037;-72
2023/03/04 12:26:46;;;;;;;36.45;21.20;;;9.50;67.80;;;;;;4997083;28;20037;-72
2023/03/04 12:29:28;;;;;;;31.85;18.13;;;9.20;67.90;;;;;;4994358;28;20026;-72
2023/03/04 12:32:03;;;;;;;34.40;20.50;;;9.00;69.60;;;;;;5008505;28;20030;-73
2023/03/04 12:35:03;;;;;;;36.92;21.05;;;9.10;69.10;;;;;;5013726;28;20021;-73
2023/03/04 12:37:29;;;;;;;34.45;19.42;;;8.90;69.20;;;;;;5003500;28;20027;-72
2023/03/04 12:40:22;;;;;;;26.17;15.98;;;8.70;69.70;;;;;;4993832;28;20049;-72
2023/03/04 12:43:19;;;;;;;25.70;14.38;;;8.40;70.50;;;;;;4994241;28;20388;-72
2023/03/04 12:45:55;;;;;;;36.03;20.40;;;8.30;71.90;;;;;;4993623;28;20062;-72
2023/03/04 12:48:38;;;;;;;34.28;19.50;;;8.30;71.10;;;;;;5010975;28;20040;-73